createdAt,value
2018-09-29T00:01:29.091Z,63.84
2018-09-29T00:03:57.867Z,63.83
2018-09-29T00:06:26.520Z,64.07
2018-09-29T00:08:55.145Z,63.90
2018-09-29T00:11:23.917Z,63.57
2018-09-29T00:13:52.584Z,63.26
2018-09-29T00:16:21.325Z,63.37
2018-09-29T00:18:49.936Z,63.29
2018-09-29T00:21:18.590Z,64.03
2018-09-29T00:23:47.281Z,63.10
2018-09-29T00:26:15.936Z,62.96
2018-09-29T00:28:44.623Z,62.13
2018-09-29T00:31:13.407Z,60.94
2018-09-29T00:33:42.065Z,60.48
2018-09-29T00:36:10.707Z,60.06
2018-09-29T00:38:39.370Z,59.78
2018-09-29T00:41:08.066Z,60.26
2018-09-29T00:43:36.731Z,59.52
2018-09-29T00:46:05.414Z,60.06
2018-09-29T00:48:34.166Z,59.81
2018-09-29T00:51:02.826Z,60.37
2018-09-29T00:53:31.459Z,60.29
2018-09-29T00:56:00.172Z,60.03
2018-09-29T00:58:32.518Z,60.51
2018-09-29T01:01:01.211Z,60.82
2018-09-29T01:03:29.917Z,61.51
2018-09-29T01:05:58.607Z,62.04
2018-09-29T01:08:27.315Z,61.97
2018-09-29T01:10:55.986Z,61.85
2018-09-29T01:13:24.765Z,61.83
2018-09-29T01:15:53.455Z,62.01
2018-09-29T01:18:22.145Z,62.12
2018-09-29T01:20:50.978Z,61.94
2018-09-29T01:23:19.652Z,62.75
2018-09-29T01:25:48.354Z,62.64
2018-09-29T01:28:17.027Z,62.02
2018-09-29T01:30:45.724Z,62.64
2018-09-29T01:33:14.355Z,63.05
2018-09-29T01:35:43.039Z,63.16
2018-09-29T01:38:11.744Z,63.50
2018-09-29T01:40:40.438Z,63.45
2018-09-29T01:43:09.125Z,63.69
2018-09-29T01:45:37.808Z,63.46
2018-09-29T01:48:06.530Z,64.32
2018-09-29T01:50:35.227Z,64.27
2018-09-29T01:53:03.877Z,64.27
2018-09-29T01:58:06.375Z,63.04
2018-09-29T02:00:35.019Z,63.34
2018-09-29T02:03:08.966Z,63.03
2018-09-29T02:05:37.589Z,62.92
2018-09-29T02:08:06.472Z,62.76
2018-09-29T02:10:35.501Z,63.16
2018-09-29T02:13:04.148Z,63.50
2018-09-29T02:15:33.803Z,63.25
2018-09-29T02:18:02.474Z,61.88
2018-09-29T02:20:31.216Z,62.06
2018-09-29T02:22:59.891Z,62.55
2018-09-29T02:25:28.617Z,61.96
2018-09-29T02:27:57.299Z,61.90
2018-09-29T02:30:25.959Z,62.22
2018-09-29T02:32:54.597Z,61.72
2018-09-29T02:35:23.342Z,62.39
2018-09-29T02:37:52.088Z,62.80
2018-09-29T02:40:20.863Z,62.45
2018-09-29T02:42:49.496Z,62.03
2018-09-29T02:45:18.134Z,62.28
2018-09-29T02:47:46.781Z,61.69
2018-09-29T02:50:15.512Z,62.25
2018-09-29T02:52:44.193Z,61.78
2018-09-29T02:55:12.865Z,61.87
2018-09-29T02:57:44.390Z,61.57
2018-09-29T03:00:13.083Z,61.75
2018-09-29T03:02:41.757Z,61.91
2018-09-29T03:05:10.434Z,61.68
2018-09-29T03:07:39.103Z,60.85
2018-09-29T03:10:07.828Z,61.79
2018-09-29T03:12:36.461Z,62.06
2018-09-29T03:15:05.194Z,61.83
2018-09-29T03:17:33.885Z,61.83
2018-09-29T03:20:02.536Z,62.16
2018-09-29T03:22:31.246Z,62.89
2018-09-29T03:24:59.889Z,62.62
2018-09-29T03:27:28.525Z,63.14
2018-09-29T03:29:57.221Z,63.96
2018-09-29T03:32:25.878Z,64.02
2018-09-29T03:34:54.529Z,64.03
2018-09-29T03:37:23.171Z,63.59
2018-09-29T03:39:51.803Z,63.91
2018-09-29T03:42:20.489Z,64.28
2018-09-29T03:44:49.154Z,63.97
2018-09-29T03:47:17.794Z,63.81
2018-09-29T03:49:46.447Z,63.87
2018-09-29T03:52:15.130Z,64.14
2018-09-29T03:54:43.787Z,63.85
2018-09-29T03:57:12.420Z,63.59
2018-09-29T03:59:41.060Z,64.11
2018-09-29T04:02:09.755Z,64.16
2018-09-29T04:04:38.440Z,64.08
2018-09-29T04:07:07.173Z,64.17
2018-09-29T04:09:35.825Z,64.93
2018-09-29T04:12:04.502Z,65.32
2018-09-29T04:14:33.225Z,65.48
2018-09-29T04:17:01.977Z,65.83
2018-09-29T04:19:30.691Z,66.13
2018-09-29T04:21:59.346Z,65.80
2018-09-29T04:24:28.025Z,66.69
2018-09-29T04:26:56.658Z,66.49
2018-09-29T04:29:25.366Z,66.82
2018-09-29T04:31:54.046Z,66.76
2018-09-29T04:34:22.692Z,66.21
2018-09-29T04:36:51.378Z,65.83
2018-09-29T04:39:20.118Z,66.04
2018-09-29T04:41:48.793Z,65.38
2018-09-29T04:44:17.554Z,65.16
2018-09-29T04:46:46.239Z,64.98
2018-09-29T04:49:14.996Z,64.79
2018-09-29T04:51:43.638Z,64.02
2018-09-29T04:54:12.292Z,63.55
2018-09-29T04:56:41.022Z,64.18
2018-09-29T04:59:10.296Z,63.38
2018-09-29T05:01:38.977Z,63.83
2018-09-29T05:04:07.632Z,64.39
2018-09-29T05:06:36.372Z,63.47
2018-09-29T05:09:06.971Z,63.80
2018-09-29T05:11:35.669Z,63.34
2018-09-29T05:14:04.387Z,63.48
2018-09-29T05:16:33.084Z,63.33
2018-09-29T05:19:01.790Z,63.01
2018-09-29T05:21:30.555Z,63.15
2018-09-29T05:23:59.301Z,63.44
2018-09-29T05:26:28.002Z,63.58
2018-09-29T05:28:56.666Z,63.34
2018-09-29T05:31:25.348Z,62.48
2018-09-29T05:33:54.094Z,62.64
2018-09-29T05:36:22.747Z,62.78
2018-09-29T05:38:51.358Z,62.19
2018-09-29T05:41:20.015Z,62.10
2018-09-29T05:43:48.729Z,62.41
2018-09-29T05:46:17.387Z,62.27
2018-09-29T05:48:46.142Z,61.51
2018-09-29T05:51:14.829Z,61.22
2018-09-29T05:53:43.546Z,61.19
2018-09-29T05:56:12.234Z,61.24
2018-09-29T05:58:40.948Z,61.55
2018-09-29T06:01:09.639Z,61.58
2018-09-29T06:03:38.386Z,62.08
2018-09-29T06:06:07.218Z,62.10
2018-09-29T06:08:36.399Z,62.76
2018-09-29T06:11:05.063Z,62.55
2018-09-29T06:13:33.780Z,62.27
2018-09-29T06:16:02.574Z,62.67
2018-09-29T06:18:31.210Z,62.35
2018-09-29T06:20:59.973Z,62.31
2018-09-29T06:23:28.611Z,61.80
2018-09-29T06:25:57.316Z,62.30
2018-09-29T06:28:26.036Z,62.58
2018-09-29T06:30:54.713Z,62.10
2018-09-29T06:33:23.506Z,62.31
2018-09-29T06:35:52.238Z,62.39
2018-09-29T06:38:21.052Z,63.02
2018-09-29T06:40:49.848Z,62.36
2018-09-29T06:43:18.429Z,61.77
2018-09-29T06:45:47.138Z,61.47
2018-09-29T06:48:15.830Z,61.48
2018-09-29T06:50:44.499Z,60.66
2018-09-29T06:53:13.205Z,61.02
2018-09-29T06:55:41.903Z,60.83
2018-09-29T06:58:10.589Z,59.77
2018-09-29T07:00:39.353Z,59.87
2018-09-29T07:03:08.111Z,60.00
2018-09-29T07:05:36.756Z,60.04
2018-09-29T07:08:05.474Z,59.61
2018-09-29T07:10:34.139Z,59.61
2018-09-29T07:13:02.876Z,58.95
2018-09-29T07:15:31.535Z,58.62
2018-09-29T07:18:00.197Z,58.45
2018-09-29T07:20:28.946Z,57.97
2018-09-29T07:22:57.686Z,57.27
2018-09-29T07:25:26.419Z,57.26
2018-09-29T07:27:55.092Z,56.61
2018-09-29T07:30:23.880Z,57.08
2018-09-29T07:32:52.602Z,56.62
2018-09-29T07:35:21.303Z,55.51
2018-09-29T07:37:49.997Z,55.36
2018-09-29T07:40:18.757Z,54.47
2018-09-29T07:42:47.445Z,53.83
2018-09-29T07:45:16.222Z,53.39
2018-09-29T07:47:44.970Z,51.97
2018-09-29T07:50:13.748Z,51.13
2018-09-29T07:52:42.443Z,51.41
2018-09-29T07:55:11.114Z,50.96
2018-09-29T07:57:39.869Z,49.85
2018-09-29T08:00:08.755Z,48.24
2018-09-29T08:02:37.568Z,48.44
2018-09-29T08:05:06.424Z,48.29
2018-09-29T08:07:35.154Z,48.02
2018-09-29T08:10:03.945Z,48.68
2018-09-29T08:12:32.686Z,48.62
2018-09-29T08:15:01.584Z,49.17
2018-09-29T08:17:30.300Z,48.44
2018-09-29T08:19:59.117Z,48.90
2018-09-29T08:22:27.862Z,47.18
2018-09-29T08:24:56.584Z,45.42
2018-09-29T08:27:25.279Z,45.44
2018-09-29T08:29:53.970Z,44.35
2018-09-29T08:32:22.825Z,43.45
2018-09-29T08:34:51.556Z,41.75
2018-09-29T08:37:20.491Z,40.84
2018-09-29T08:39:49.274Z,41.94
2018-09-29T08:42:17.978Z,42.32
2018-09-29T08:44:46.841Z,43.72
2018-09-29T08:47:15.568Z,44.70
2018-09-29T08:49:44.330Z,44.08
2018-09-29T08:52:13.162Z,44.35
2018-09-29T08:54:41.863Z,44.65
2018-09-29T08:57:10.667Z,43.70
2018-09-29T08:59:39.407Z,44.21
2018-09-29T09:02:08.236Z,42.60
2018-09-29T09:04:37.009Z,42.06
2018-09-29T09:07:06.435Z,41.04
2018-09-29T09:09:35.313Z,41.50
2018-09-29T09:12:03.995Z,42.12
2018-09-29T09:14:32.702Z,42.94
2018-09-29T09:17:01.511Z,42.66
2018-09-29T09:19:30.175Z,41.44
2018-09-29T09:21:58.904Z,41.99
2018-09-29T09:24:27.586Z,42.38
2018-09-29T09:26:56.277Z,42.05
2018-09-29T09:29:24.998Z,41.67
2018-09-29T09:31:53.753Z,41.32
2018-09-29T09:34:22.496Z,41.04
2018-09-29T09:36:51.196Z,40.72
2018-09-29T09:39:19.985Z,39.14
2018-09-29T09:41:48.679Z,39.06
2018-09-29T09:44:17.458Z,40.41
2018-09-29T09:46:46.238Z,40.20
2018-09-29T09:49:14.952Z,40.04
2018-09-29T09:51:43.749Z,40.00
2018-09-29T09:54:12.442Z,38.64
2018-09-29T09:56:41.102Z,38.09
2018-09-29T09:59:09.852Z,37.84
2018-09-29T10:01:43.688Z,37.97
2018-09-29T10:04:12.457Z,38.06
2018-09-29T10:06:41.160Z,38.16
2018-09-29T10:09:12.042Z,37.45
2018-09-29T10:11:40.960Z,37.65
2018-09-29T10:14:09.701Z,38.54
2018-09-29T10:16:38.487Z,38.64
2018-09-29T10:19:07.306Z,38.25
2018-09-29T10:21:36.025Z,37.90
2018-09-29T10:24:04.829Z,38.96
2018-09-29T10:26:33.616Z,38.26
2018-09-29T10:29:02.340Z,38.19
2018-09-29T10:31:31.048Z,38.61
2018-09-29T10:33:59.803Z,39.18
2018-09-29T10:36:28.567Z,38.78
2018-09-29T10:38:57.263Z,38.87
2018-09-29T10:41:26.090Z,39.62
2018-09-29T10:43:54.815Z,39.13
2018-09-29T10:46:23.556Z,38.91
2018-09-29T10:48:52.243Z,39.11
2018-09-29T10:51:20.961Z,38.63
2018-09-29T10:53:49.673Z,38.22
2018-09-29T10:56:18.286Z,37.89
2018-09-29T10:58:47.022Z,38.50
2018-09-29T11:01:15.735Z,38.22
2018-09-29T11:03:44.446Z,37.74
2018-09-29T11:06:13.155Z,36.82
2018-09-29T11:08:42.004Z,37.73
2018-09-29T11:11:10.715Z,38.19
2018-09-29T11:13:39.464Z,38.41
2018-09-29T11:16:08.313Z,37.86
2018-09-29T11:18:36.974Z,37.02
2018-09-29T11:21:06.014Z,37.85
2018-09-29T11:23:34.696Z,37.99
2018-09-29T11:26:03.428Z,37.98
2018-09-29T11:28:32.081Z,37.50
2018-09-29T11:31:00.879Z,37.61
2018-09-29T11:33:29.568Z,37.03
2018-09-29T11:35:58.254Z,36.33
2018-09-29T11:38:26.873Z,35.86
2018-09-29T11:40:55.636Z,35.74
2018-09-29T11:43:24.351Z,35.90
2018-09-29T11:45:53.009Z,35.21
2018-09-29T11:48:21.699Z,35.06
2018-09-29T11:50:50.422Z,34.79
2018-09-29T11:53:19.143Z,34.86
2018-09-29T11:55:47.897Z,34.60
2018-09-29T11:58:16.685Z,34.92
2018-09-29T12:00:45.469Z,33.79
2018-09-29T12:03:14.168Z,34.22
2018-09-29T12:05:42.987Z,34.29
2018-09-29T12:08:11.712Z,34.21
2018-09-29T12:10:40.699Z,33.98
2018-09-29T12:13:09.433Z,34.11
2018-09-29T12:15:38.137Z,32.62
2018-09-29T12:18:06.991Z,32.03
2018-09-29T12:20:35.828Z,32.38
2018-09-29T12:23:04.550Z,32.95
2018-09-29T12:25:33.277Z,32.73
2018-09-29T12:28:02.027Z,32.62
2018-09-29T12:30:30.702Z,33.53
2018-09-29T12:32:59.392Z,33.00
2018-09-29T12:35:28.086Z,32.21
2018-09-29T12:37:57.577Z,31.96
2018-09-29T12:40:26.275Z,31.57
2018-09-29T12:42:55.107Z,31.56
2018-09-29T12:45:29.513Z,32.29
2018-09-29T12:47:58.243Z,31.77
2018-09-29T12:50:26.911Z,32.60
2018-09-29T12:52:55.704Z,32.17
2018-09-29T12:55:24.966Z,32.38
2018-09-29T12:57:53.696Z,31.83
2018-09-29T13:00:22.549Z,31.59
2018-09-29T13:02:51.281Z,31.37
2018-09-29T13:05:20.140Z,31.77
2018-09-29T13:07:48.726Z,31.12
2018-09-29T13:10:17.429Z,31.67
2018-09-29T13:12:46.198Z,31.27
2018-09-29T13:15:15.043Z,30.34
2018-09-29T13:17:43.855Z,31.38
2018-09-29T13:20:12.661Z,30.46
2018-09-29T13:22:41.420Z,30.34
2018-09-29T13:25:10.276Z,30.84
2018-09-29T13:27:38.964Z,30.61
2018-09-29T13:30:07.743Z,30.79
2018-09-29T13:32:36.507Z,30.11
2018-09-29T13:35:05.263Z,30.58
2018-09-29T13:37:34.472Z,30.25
2018-09-29T13:40:03.374Z,30.40
2018-09-29T13:42:32.112Z,30.28
2018-09-29T13:45:00.812Z,30.47
2018-09-29T13:47:29.526Z,30.04
2018-09-29T13:49:58.285Z,30.72
2018-09-29T13:52:26.995Z,30.48
2018-09-29T13:54:56.848Z,30.38
2018-09-29T13:57:25.622Z,29.87
2018-09-29T13:59:54.418Z,29.20
2018-09-29T14:02:23.148Z,28.33
2018-09-29T14:04:51.868Z,27.55
2018-09-29T14:07:20.566Z,26.49
2018-09-29T14:09:49.374Z,26.10
2018-09-29T14:12:18.186Z,27.04
2018-09-29T14:14:46.923Z,26.01
2018-09-29T14:17:15.700Z,26.36
2018-09-29T14:19:44.483Z,25.74
2018-09-29T14:22:13.164Z,25.85
2018-09-29T14:24:41.872Z,25.84
2018-09-29T14:27:10.692Z,26.12
2018-09-29T14:29:39.428Z,25.82
2018-09-29T14:32:08.162Z,25.46
2018-09-29T14:34:36.922Z,25.65
2018-09-29T14:37:05.707Z,25.63
2018-09-29T14:39:34.463Z,24.91
2018-09-29T14:42:03.329Z,24.40
2018-09-29T14:44:31.965Z,23.47
2018-09-29T14:47:00.761Z,24.50
2018-09-29T14:49:29.484Z,24.52
2018-09-29T14:51:58.242Z,24.34
2018-09-29T14:54:26.994Z,23.98
2018-09-29T14:56:55.706Z,23.50
2018-09-29T14:59:24.417Z,23.57
2018-09-29T15:01:53.793Z,22.88
2018-09-29T15:04:22.685Z,23.63
2018-09-29T15:06:51.438Z,24.25
2018-09-29T15:09:20.206Z,23.39
2018-09-29T15:11:48.962Z,23.24
2018-09-29T15:14:17.744Z,21.82
2018-09-29T15:16:46.554Z,22.26
2018-09-29T15:19:15.290Z,23.58
2018-09-29T15:21:44.067Z,24.13
2018-09-29T15:24:12.871Z,22.68
2018-09-29T15:26:41.619Z,22.91
2018-09-29T15:29:10.618Z,22.18
2018-09-29T15:31:39.431Z,23.92
2018-09-29T15:34:08.347Z,24.61
2018-09-29T15:36:37.104Z,24.59
2018-09-29T15:39:08.434Z,24.95
2018-09-29T15:41:37.159Z,24.28
2018-09-29T15:44:05.878Z,24.20
2018-09-29T15:46:34.561Z,24.84
2018-09-29T15:49:03.896Z,25.02
2018-09-29T15:51:32.622Z,24.61
2018-09-29T15:54:01.516Z,24.80
2018-09-29T15:56:30.294Z,25.42
2018-09-29T15:58:59.002Z,25.13
2018-09-29T16:01:27.827Z,25.73
2018-09-29T16:03:56.551Z,25.33
2018-09-29T16:06:25.448Z,26.38
2018-09-29T16:08:54.193Z,27.54
2018-09-29T16:11:22.912Z,28.82
2018-09-29T16:13:51.631Z,30.54
2018-09-29T16:16:20.398Z,31.33
2018-09-29T16:18:49.176Z,32.39
2018-09-29T16:21:18.338Z,33.29
2018-09-29T16:23:47.077Z,33.75
2018-09-29T16:26:15.869Z,34.94
2018-09-29T16:28:44.782Z,35.34
2018-09-29T16:31:13.492Z,35.61
2018-09-29T16:33:42.344Z,36.47
2018-09-29T16:36:11.093Z,37.28
2018-09-29T16:38:39.826Z,37.80
2018-09-29T16:41:08.629Z,38.09
2018-09-29T16:43:37.421Z,38.17
2018-09-29T16:46:06.160Z,38.93
2018-09-29T16:48:34.921Z,39.21
2018-09-29T16:51:03.691Z,39.47
2018-09-29T16:53:32.441Z,39.93
2018-09-29T16:56:01.159Z,39.52
2018-09-29T16:58:32.894Z,40.48
2018-09-29T17:01:01.630Z,40.68
2018-09-29T17:03:30.631Z,40.76
2018-09-29T17:06:03.335Z,41.15
2018-09-29T17:08:32.156Z,41.41
2018-09-29T17:11:00.885Z,42.23
2018-09-29T17:13:29.731Z,43.03
2018-09-29T17:15:58.526Z,42.75
2018-09-29T17:18:27.178Z,42.81
2018-09-29T17:20:55.994Z,42.61
2018-09-29T17:23:24.695Z,43.05
2018-09-29T17:25:53.416Z,42.76
2018-09-29T17:28:22.125Z,43.21
2018-09-29T17:30:50.915Z,42.97
2018-09-29T17:33:19.879Z,43.45
2018-09-29T17:35:48.643Z,44.01
2018-09-29T17:38:17.487Z,44.38
2018-09-29T17:40:46.230Z,45.60
2018-09-29T17:43:14.953Z,46.52
2018-09-29T17:45:43.692Z,47.23
2018-09-29T17:48:12.509Z,47.47
2018-09-29T17:50:41.254Z,47.40
2018-09-29T17:53:10.880Z,48.17
2018-09-29T17:55:39.647Z,47.14
2018-09-29T17:58:08.493Z,47.35
2018-09-29T18:00:37.429Z,48.24
2018-09-29T18:03:06.149Z,48.46
2018-09-29T18:05:35.129Z,48.41
2018-09-29T18:08:03.919Z,48.58
2018-09-29T18:10:32.697Z,48.77
2018-09-29T18:13:01.511Z,48.99
2018-09-29T18:15:30.295Z,48.80
2018-09-29T18:17:59.120Z,49.40
2018-09-29T18:20:27.803Z,49.49
2018-09-29T18:22:56.508Z,49.91
2018-09-29T18:25:25.241Z,48.84
2018-09-29T18:27:53.929Z,49.30
2018-09-29T18:30:22.605Z,49.17
2018-09-29T18:32:51.325Z,49.53
2018-09-29T18:35:20.145Z,49.47
2018-09-29T18:37:48.848Z,49.27
2018-09-29T18:40:17.579Z,50.44
2018-09-29T18:42:46.356Z,51.19
2018-09-29T18:45:15.093Z,51.72
2018-09-29T18:47:43.823Z,51.96
2018-09-29T18:50:12.587Z,52.09
2018-09-29T18:52:41.346Z,51.97
2018-09-29T18:55:10.294Z,51.34
2018-09-29T18:57:39.077Z,51.40
2018-09-29T19:00:08.025Z,50.99
2018-09-29T19:02:36.740Z,51.48
2018-09-29T19:05:05.525Z,51.18
2018-09-29T19:07:34.374Z,52.05
2018-09-29T19:10:03.205Z,52.72
2018-09-29T19:12:31.973Z,53.07
2018-09-29T19:15:00.660Z,53.20
2018-09-29T19:17:29.346Z,52.37
2018-09-29T19:19:58.106Z,52.67
2018-09-29T19:22:26.848Z,53.24
2018-09-29T19:24:55.570Z,53.67
2018-09-29T19:27:24.372Z,53.64
2018-09-29T19:29:53.112Z,53.38
2018-09-29T19:32:21.831Z,53.78
2018-09-29T19:34:50.538Z,53.38
2018-09-29T19:37:19.267Z,54.23
2018-09-29T19:39:48.020Z,54.99
2018-09-29T19:42:16.723Z,55.33
2018-09-29T19:44:45.514Z,55.49
2018-09-29T19:47:14.864Z,54.51
2018-09-29T19:49:43.616Z,54.81
2018-09-29T19:52:12.423Z,54.61
2018-09-29T19:54:41.809Z,55.80
2018-09-29T19:57:10.689Z,55.26
2018-09-29T19:59:39.398Z,55.96
2018-09-29T20:02:08.148Z,56.13
2018-09-29T20:04:36.994Z,55.06
2018-09-29T20:07:05.756Z,54.12
2018-09-29T20:09:34.474Z,53.83
2018-09-29T20:12:03.190Z,53.95
2018-09-29T20:14:31.927Z,54.17
2018-09-29T20:17:00.719Z,54.34
2018-09-29T20:19:29.401Z,54.11
2018-09-29T20:21:58.133Z,54.04
2018-09-29T20:24:26.844Z,53.58
2018-09-29T20:26:55.542Z,54.45
2018-09-29T20:29:24.274Z,55.10
2018-09-29T20:31:53.005Z,54.33
2018-09-29T20:34:21.696Z,54.37
2018-09-29T20:36:50.567Z,54.02
2018-09-29T20:39:19.341Z,54.05
2018-09-29T20:41:48.149Z,54.74
2018-09-29T20:44:16.877Z,55.84
2018-09-29T20:46:46.049Z,55.31
2018-09-29T20:49:14.816Z,55.30
2018-09-29T20:51:43.572Z,55.17
2018-09-29T20:54:12.309Z,54.61
2018-09-29T20:56:40.994Z,54.91
2018-09-29T20:59:09.701Z,54.09
2018-09-29T21:01:38.483Z,54.73
2018-09-29T21:04:07.389Z,55.91
2018-09-29T21:06:36.149Z,56.13
2018-09-29T21:09:06.027Z,57.32
2018-09-29T21:11:34.798Z,55.43
2018-09-29T21:14:03.538Z,56.30
2018-09-29T21:16:32.256Z,58.04
2018-09-29T21:19:00.958Z,58.04
2018-09-29T21:21:29.695Z,59.33
2018-09-29T21:23:58.415Z,60.56
2018-09-29T21:26:27.179Z,60.12
2018-09-29T21:28:55.886Z,60.29
2018-09-29T21:31:24.579Z,61.02
2018-09-29T21:33:53.346Z,60.36
2018-09-29T21:36:22.115Z,60.72
2018-09-29T21:38:50.779Z,60.81
2018-09-29T21:41:19.505Z,61.35
2018-09-29T21:43:48.256Z,61.28
2018-09-29T21:46:16.970Z,60.75
2018-09-29T21:48:45.712Z,60.46
2018-09-29T21:51:14.527Z,61.10
2018-09-29T21:53:43.203Z,60.08
2018-09-29T21:56:11.917Z,62.16
2018-09-29T21:58:40.582Z,62.24
2018-09-29T22:01:14.521Z,61.83
2018-09-29T22:03:43.285Z,62.79
2018-09-29T22:06:11.987Z,63.24
2018-09-29T22:08:40.686Z,62.82
2018-09-29T22:11:09.448Z,63.42
2018-09-29T22:13:38.123Z,63.77
2018-09-29T22:16:06.967Z,64.46
2018-09-29T22:18:35.626Z,66.20
2018-09-29T22:21:04.354Z,65.29
2018-09-29T22:23:33.107Z,66.17
2018-09-29T22:26:01.804Z,66.14
2018-09-29T22:28:30.446Z,66.77
2018-09-29T22:30:59.125Z,65.74
2018-09-29T22:33:27.818Z,66.09
2018-09-29T22:35:56.614Z,65.89
2018-09-29T22:38:25.383Z,66.07
2018-09-29T22:40:54.087Z,66.69
2018-09-29T22:43:22.803Z,66.62
2018-09-29T22:45:51.547Z,66.52
2018-09-29T22:48:20.259Z,66.14
2018-09-29T22:50:49.017Z,67.78
2018-09-29T22:53:17.719Z,68.14
2018-09-29T22:55:46.419Z,69.43
2018-09-29T22:58:15.118Z,70.30
2018-09-29T23:00:43.857Z,69.90
2018-09-29T23:03:12.491Z,70.25
2018-09-29T23:05:41.199Z,70.53
2018-09-29T23:08:09.944Z,71.15
2018-09-29T23:10:38.625Z,71.17
2018-09-29T23:13:12.497Z,70.05
2018-09-29T23:15:41.202Z,69.61
2018-09-29T23:18:09.895Z,70.00
2018-09-29T23:20:38.632Z,69.33
2018-09-29T23:23:07.355Z,68.44
2018-09-29T23:25:36.063Z,67.87
2018-09-29T23:28:04.790Z,68.01
2018-09-29T23:30:33.495Z,67.55
2018-09-29T23:33:02.197Z,67.54
2018-09-29T23:35:30.915Z,67.66
2018-09-29T23:37:59.620Z,68.21
2018-09-29T23:40:28.316Z,68.88
2018-09-29T23:42:57.100Z,69.18
2018-09-29T23:45:25.806Z,69.22
2018-09-29T23:47:54.493Z,69.62
2018-09-29T23:50:23.185Z,69.90
2018-09-29T23:52:51.900Z,69.46
2018-09-29T23:55:20.889Z,70.75
2018-09-29T23:57:49.579Z,71.29
